KCOT/COT METAR and TAF weather

Enter ICAO airport designator
Station Type Date Time Source
KCOT METAR 2024/05/28 22:53 UTC NOAA

KCOT 282253Z AUTO 13013G23KT 8SM FEW065 38/21 A2979 RMK AO2 PK WND 14028/2237 SLP079 T03780206


Station Type Date Time Source
KCOT Decoded METAR 2024/05/28 22:53 UTC NOAA

COTULLA-LASALLE COUNTY AIRPORT , TX, United States (KCOT) 28-27N 099-13W 140M
May 28, 2024 - 06:53 PM EDT / 2024.05.28 2253 UTC
Wind: from the SE (130 degrees) at 15 MPH (13 KT) gusting to 26 MPH (23 KT):0
Visibility: 8 mile(s):0
Sky conditions: mostly clear
Temperature: 100.0 F (37.8 C)
Heat index: 106.9 F (41.6 C):1
Dew Point: 69.1 F (20.6 C)
Relative Humidity: 37%
Pressure (altimeter): 29.79 in. Hg (1008 hPa)
ob: KCOT 282253Z AUTO 13013G23KT 8SM FEW065 38/21 A2979 RMK AO2 PK WND 14028/2237 SLP079 T03780206
cycle: 23

Station Type Date Time Source
KCOT TAF 2024/05/28 18:21 UTC NOAA